createdAt,value
2017-06-15T00:00:55.590Z,88.50
2017-06-15T00:03:23.139Z,87.90
2017-06-15T00:05:50.722Z,88.00
2017-06-15T00:08:18.371Z,87.50
2017-06-15T00:10:46.039Z,87.40
2017-06-15T00:13:13.622Z,87.30
2017-06-15T00:15:41.186Z,89.10
2017-06-15T00:18:08.727Z,90.00
2017-06-15T00:20:36.309Z,90.10
2017-06-15T00:23:03.847Z,90.30
2017-06-15T00:25:31.402Z,90.10
2017-06-15T00:27:58.962Z,90.50
2017-06-15T00:30:26.526Z,90.60
2017-06-15T00:32:54.110Z,90.80
2017-06-15T00:35:21.655Z,90.30
2017-06-15T00:37:49.320Z,90.90
2017-06-15T00:40:16.853Z,91.00
2017-06-15T00:42:44.456Z,90.80
2017-06-15T00:45:12.014Z,90.90
2017-06-15T00:47:39.619Z,91.00
2017-06-15T00:50:07.234Z,91.40
2017-06-15T00:52:34.774Z,91.60
2017-06-15T00:55:02.362Z,91.20
2017-06-15T00:57:29.942Z,91.60
2017-06-15T00:59:58.330Z,91.80
2017-06-15T01:02:26.652Z,91.80
2017-06-15T01:04:54.351Z,91.80
2017-06-15T01:07:21.913Z,92.00
2017-06-15T01:09:49.507Z,92.30
2017-06-15T01:12:18.008Z,92.00
2017-06-15T01:14:45.602Z,92.20
2017-06-15T01:17:13.156Z,92.30
2017-06-15T01:19:40.756Z,92.40
2017-06-15T01:22:09.096Z,92.60
2017-06-15T01:24:36.677Z,92.90
2017-06-15T01:27:04.210Z,92.70
2017-06-15T01:29:31.796Z,92.70
2017-06-15T01:31:59.356Z,92.60
2017-06-15T01:34:26.914Z,92.90
2017-06-15T01:36:54.482Z,92.80
2017-06-15T01:39:22.044Z,92.50
2017-06-15T01:41:49.705Z,92.80
2017-06-15T01:44:17.263Z,93.20
2017-06-15T01:46:44.959Z,93.10
2017-06-15T01:49:15.770Z,93.10
2017-06-15T01:51:43.409Z,93.20
2017-06-15T01:54:10.974Z,93.20
2017-06-15T01:56:38.543Z,93.30
2017-06-15T01:59:06.246Z,93.70
2017-06-15T02:01:33.848Z,93.90
2017-06-15T02:04:01.534Z,93.90
2017-06-15T02:06:29.130Z,93.90
2017-06-15T02:08:56.750Z,94.00
2017-06-15T02:11:24.453Z,94.00
2017-06-15T02:13:52.149Z,94.20
2017-06-15T02:16:19.751Z,94.00
2017-06-15T02:18:47.325Z,94.10
2017-06-15T02:21:14.972Z,93.90
2017-06-15T02:23:42.659Z,94.30
2017-06-15T02:26:10.990Z,94.10
2017-06-15T02:28:38.522Z,94.10
2017-06-15T02:31:06.118Z,94.10
2017-06-15T02:33:33.650Z,94.00
2017-06-15T02:36:01.235Z,94.50
2017-06-15T02:38:28.805Z,94.60
2017-06-15T02:40:56.400Z,94.70
2017-06-15T02:43:24.756Z,94.90
2017-06-15T02:45:52.338Z,94.50
2017-06-15T02:48:20.717Z,94.80
2017-06-15T02:53:55.522Z,94.80
2017-06-15T02:56:23.106Z,94.80
2017-06-15T02:58:50.651Z,95.00
2017-06-15T03:01:18.246Z,94.60
2017-06-15T03:03:45.773Z,94.60
2017-06-15T03:06:13.315Z,94.90
2017-06-15T03:08:40.847Z,94.80
2017-06-15T03:11:09.190Z,95.10
2017-06-15T03:13:36.724Z,95.00
2017-06-15T03:16:04.300Z,94.90
2017-06-15T03:18:31.863Z,95.10
2017-06-15T03:20:59.422Z,95.10
2017-06-15T03:23:27.109Z,94.90
2017-06-15T03:25:54.670Z,95.10
2017-06-15T03:28:22.312Z,94.80
2017-06-15T03:30:49.863Z,94.90
2017-06-15T03:33:17.460Z,94.50
2017-06-15T03:35:45.064Z,94.80
2017-06-15T03:38:12.674Z,95.00
2017-06-15T03:40:40.240Z,95.40
2017-06-15T03:43:07.787Z,95.00
2017-06-15T03:45:35.343Z,94.40
2017-06-15T03:48:02.919Z,94.40
2017-06-15T03:50:30.559Z,94.30
2017-06-15T03:52:58.144Z,94.00
2017-06-15T03:55:25.699Z,94.00
2017-06-15T03:57:53.244Z,93.80
2017-06-15T04:00:20.797Z,93.80
2017-06-15T04:02:48.385Z,93.80
2017-06-15T04:05:16.027Z,93.70
2017-06-15T04:07:43.595Z,93.60
2017-06-15T04:10:11.174Z,93.60
2017-06-15T04:12:38.796Z,93.40
2017-06-15T04:15:06.343Z,93.40
2017-06-15T04:17:33.938Z,93.50
2017-06-15T04:20:01.489Z,93.50
2017-06-15T04:22:29.031Z,93.50
2017-06-15T04:24:56.562Z,93.30
2017-06-15T04:27:24.882Z,93.00
2017-06-15T04:29:52.420Z,93.00
2017-06-15T04:32:19.954Z,93.10
2017-06-15T04:34:48.385Z,92.90
2017-06-15T04:37:15.950Z,93.20
2017-06-15T04:39:43.598Z,92.70
2017-06-15T04:42:11.152Z,92.40
2017-06-15T04:44:38.841Z,92.60
2017-06-15T04:47:06.402Z,92.40
2017-06-15T04:49:33.946Z,92.00
2017-06-15T04:52:01.518Z,92.10
2017-06-15T04:54:29.050Z,91.90
2017-06-15T04:56:56.616Z,92.20
2017-06-15T04:59:24.178Z,92.20
2017-06-15T05:01:51.762Z,91.50
2017-06-15T05:04:19.326Z,91.50
2017-06-15T05:06:57.222Z,91.30
2017-06-15T05:09:24.782Z,91.30
2017-06-15T05:11:52.475Z,90.70
2017-06-15T05:14:20.014Z,90.50
2017-06-15T05:16:47.573Z,90.10
2017-06-15T05:19:15.111Z,87.20
2017-06-15T05:21:42.650Z,83.90
2017-06-15T05:24:10.978Z,76.20
2017-06-15T05:26:38.538Z,76.10
2017-06-15T05:29:06.210Z,71.80
2017-06-15T05:31:33.863Z,71.60
2017-06-15T05:34:01.435Z,66.20
2017-06-15T05:36:29.098Z,65.60
2017-06-15T05:38:56.671Z,66.90
2017-06-15T05:41:24.206Z,64.20
2017-06-15T05:43:51.859Z,62.50
2017-06-15T05:46:19.398Z,63.70
2017-06-15T05:48:46.938Z,65.70
2017-06-15T05:51:15.248Z,64.30
2017-06-15T05:53:42.834Z,64.10
2017-06-15T05:56:10.495Z,60.60
2017-06-15T05:58:38.055Z,60.30
2017-06-15T06:01:05.618Z,59.20
2017-06-15T06:03:33.176Z,59.00
2017-06-15T06:06:00.735Z,61.60
2017-06-15T06:08:28.302Z,61.40
2017-06-15T06:10:55.957Z,60.50
2017-06-15T06:13:23.513Z,61.50
2017-06-15T06:15:51.049Z,60.00
2017-06-15T06:18:18.641Z,59.90
2017-06-15T06:20:47.015Z,58.90
2017-06-15T06:23:14.622Z,58.90
2017-06-15T06:25:42.956Z,57.20
2017-06-15T06:28:10.630Z,57.40
2017-06-15T06:30:38.186Z,56.80
2017-06-15T06:33:05.859Z,55.00
2017-06-15T06:35:33.398Z,54.80
2017-06-15T06:38:00.972Z,51.30
2017-06-15T06:40:28.516Z,55.20
2017-06-15T06:42:56.088Z,54.40
2017-06-15T06:45:23.656Z,54.20
2017-06-15T06:47:51.191Z,51.50
2017-06-15T06:50:18.727Z,54.50
2017-06-15T06:52:47.048Z,52.60
2017-06-15T06:55:14.615Z,52.50
2017-06-15T06:57:42.154Z,55.60
2017-06-15T07:00:09.739Z,55.50
2017-06-15T07:02:37.295Z,54.50
2017-06-15T07:05:04.830Z,56.20
2017-06-15T07:07:32.372Z,54.50
2017-06-15T07:10:00.798Z,56.30
2017-06-15T07:12:28.358Z,56.20
2017-06-15T07:14:55.923Z,58.10
2017-06-15T07:17:23.481Z,56.70
2017-06-15T07:19:51.037Z,56.40
2017-06-15T07:22:18.603Z,55.50
2017-06-15T07:24:46.163Z,56.20
2017-06-15T07:27:13.726Z,55.00
2017-06-15T07:29:41.268Z,55.60
2017-06-15T07:32:08.842Z,53.10
2017-06-15T07:34:36.400Z,53.10
2017-06-15T07:37:03.967Z,56.10
2017-06-15T07:39:31.530Z,56.00
2017-06-15T07:41:59.192Z,54.00
2017-06-15T07:44:26.753Z,55.50
2017-06-15T07:46:54.306Z,52.90
2017-06-15T07:49:21.835Z,54.80
2017-06-15T07:51:49.430Z,52.80
2017-06-15T07:54:16.965Z,55.30
2017-06-15T07:56:44.502Z,55.00
2017-06-15T07:59:12.799Z,53.60
2017-06-15T08:01:40.393Z,53.70
2017-06-15T08:04:07.938Z,55.70
2017-06-15T08:06:35.515Z,51.80
2017-06-15T08:09:03.056Z,53.00
2017-06-15T08:11:30.639Z,54.70
2017-06-15T08:13:58.204Z,53.00
2017-06-15T08:16:25.734Z,55.10
2017-06-15T08:18:53.322Z,54.10
2017-06-15T08:21:20.879Z,55.00
2017-06-15T08:23:48.411Z,53.30
2017-06-15T08:26:15.994Z,56.70
2017-06-15T08:28:43.563Z,54.70
2017-06-15T08:31:11.123Z,55.50
2017-06-15T08:33:38.686Z,53.60
2017-06-15T08:36:06.217Z,55.00
2017-06-15T08:38:33.802Z,53.10
2017-06-15T08:41:01.332Z,56.10
2017-06-15T08:43:28.931Z,53.50
2017-06-15T08:45:56.493Z,52.00
2017-06-15T08:48:24.046Z,52.10
2017-06-15T08:50:51.613Z,54.10
2017-06-15T08:53:19.154Z,52.90
2017-06-15T08:55:46.719Z,56.40
2017-06-15T08:58:14.251Z,55.30
2017-06-15T09:00:41.789Z,54.50
2017-06-15T09:03:10.143Z,58.60
2017-06-15T09:05:37.695Z,57.80
2017-06-15T09:08:05.251Z,53.60
2017-06-15T09:10:39.462Z,55.70
2017-06-15T09:13:07.026Z,55.20
2017-06-15T09:15:34.596Z,55.70
2017-06-15T09:18:02.158Z,57.00
2017-06-15T09:20:31.217Z,54.60
2017-06-15T09:22:58.915Z,56.00
2017-06-15T09:25:26.478Z,61.40
2017-06-15T09:27:54.038Z,55.10
2017-06-15T09:30:21.604Z,53.90
2017-06-15T09:32:49.157Z,53.50
2017-06-15T09:35:16.700Z,55.20
2017-06-15T09:37:44.275Z,56.00
2017-06-15T09:40:11.820Z,53.80
2017-06-15T09:42:39.394Z,56.10
2017-06-15T09:45:07.051Z,54.20
2017-06-15T09:47:34.600Z,54.40
2017-06-15T09:50:02.189Z,55.20
2017-06-15T09:52:29.726Z,56.70
2017-06-15T09:54:57.303Z,57.20
2017-06-15T09:57:24.861Z,52.20
2017-06-15T09:59:52.423Z,54.90
2017-06-15T10:02:19.986Z,54.70
2017-06-15T10:04:47.530Z,53.30
2017-06-15T10:07:15.106Z,53.00
2017-06-15T10:09:42.716Z,54.80
2017-06-15T10:12:21.286Z,53.60
2017-06-15T10:14:48.838Z,53.50
2017-06-15T10:17:16.504Z,52.40
2017-06-15T10:19:44.070Z,51.50
2017-06-15T10:22:11.626Z,53.00
2017-06-15T10:24:39.191Z,53.10
2017-06-15T10:27:06.841Z,53.90
2017-06-15T10:29:34.410Z,53.00
2017-06-15T10:32:01.951Z,50.30
2017-06-15T10:34:29.535Z,50.70
2017-06-15T10:36:57.102Z,51.30
2017-06-15T10:39:24.766Z,52.20
2017-06-15T10:41:52.330Z,52.20
2017-06-15T10:44:19.987Z,54.80
2017-06-15T10:46:47.517Z,49.80
2017-06-15T10:49:15.074Z,51.30
2017-06-15T10:51:42.618Z,49.20
2017-06-15T10:54:10.946Z,48.50
2017-06-15T10:56:38.474Z,48.40
2017-06-15T10:59:06.066Z,51.10
2017-06-15T11:01:33.606Z,50.10
2017-06-15T11:04:01.182Z,50.60
2017-06-15T11:06:28.738Z,53.70
2017-06-15T11:08:56.285Z,51.00
2017-06-15T11:11:23.870Z,52.90
2017-06-15T11:13:51.406Z,53.10
2017-06-15T11:16:18.962Z,49.80
2017-06-15T11:18:46.550Z,51.80
2017-06-15T11:21:14.210Z,53.10
2017-06-15T11:23:41.743Z,49.70
2017-06-15T11:26:09.334Z,50.30
2017-06-15T11:28:36.907Z,50.30
2017-06-15T11:31:04.460Z,48.80
2017-06-15T11:33:32.124Z,50.20
2017-06-15T11:35:59.675Z,51.80
2017-06-15T11:38:27.346Z,50.80
2017-06-15T11:40:54.882Z,50.50
2017-06-15T11:43:22.566Z,51.60
2017-06-15T11:45:50.105Z,51.90
2017-06-15T11:48:17.694Z,52.00
2017-06-15T11:50:45.237Z,51.80
2017-06-15T11:53:12.810Z,52.10
2017-06-15T11:55:40.480Z,50.30
2017-06-15T11:58:08.008Z,51.50
2017-06-15T12:00:35.566Z,50.40
2017-06-15T12:03:03.107Z,51.10
2017-06-15T12:05:31.529Z,51.20
2017-06-15T12:07:59.065Z,51.20
2017-06-15T12:10:26.630Z,51.70
2017-06-15T12:12:54.215Z,51.00
2017-06-15T12:15:21.790Z,50.70
2017-06-15T12:17:49.374Z,49.90
2017-06-15T12:20:16.993Z,51.10
2017-06-15T12:22:44.527Z,50.90
2017-06-15T12:25:12.062Z,51.60
2017-06-15T12:27:40.392Z,52.30
2017-06-15T12:30:07.950Z,51.70
2017-06-15T12:32:35.631Z,50.80
2017-06-15T12:35:03.178Z,52.50
2017-06-15T12:37:30.845Z,52.60
2017-06-15T12:39:58.405Z,54.30
2017-06-15T12:42:25.970Z,53.60
2017-06-15T12:44:53.506Z,56.10
2017-06-15T12:47:21.039Z,53.80
2017-06-15T12:49:49.365Z,54.10
2017-06-15T12:52:16.930Z,54.10
2017-06-15T12:54:44.491Z,56.70
2017-06-15T12:57:12.054Z,54.10
2017-06-15T12:59:39.583Z,53.70
2017-06-15T13:02:07.175Z,54.90
2017-06-15T13:04:34.707Z,56.30
2017-06-15T13:07:02.238Z,53.80
2017-06-15T13:09:30.575Z,53.50
2017-06-15T13:11:58.107Z,53.40
2017-06-15T13:14:25.679Z,55.00
2017-06-15T13:16:53.257Z,57.70
2017-06-15T13:19:20.816Z,54.50
2017-06-15T13:21:48.381Z,56.40
2017-06-15T13:24:15.935Z,53.80
2017-06-15T13:26:43.477Z,53.10
2017-06-15T13:29:11.006Z,54.70
2017-06-15T13:31:39.336Z,54.90
2017-06-15T13:34:06.894Z,54.90
2017-06-15T13:36:34.421Z,55.30
2017-06-15T13:39:02.013Z,55.40
2017-06-15T13:41:29.686Z,55.60
2017-06-15T13:43:57.238Z,55.30
2017-06-15T13:46:24.835Z,55.60
2017-06-15T13:48:52.386Z,55.70
2017-06-15T13:51:19.927Z,57.10
2017-06-15T13:53:47.468Z,55.30
2017-06-15T13:56:14.998Z,56.00
2017-06-15T13:58:43.322Z,55.40
2017-06-15T14:01:10.850Z,55.30
2017-06-15T14:03:38.385Z,56.40
2017-06-15T14:06:06.723Z,56.00
2017-06-15T14:08:34.279Z,55.90
2017-06-15T14:11:01.849Z,57.20
2017-06-15T14:13:29.486Z,55.10
2017-06-15T14:15:57.020Z,55.70
2017-06-15T14:18:25.325Z,54.90
2017-06-15T14:20:59.255Z,54.80
2017-06-15T14:23:26.794Z,54.70
2017-06-15T14:25:54.330Z,54.50
2017-06-15T14:28:22.623Z,55.20
2017-06-15T14:30:50.158Z,55.10
2017-06-15T14:33:18.496Z,55.70
2017-06-15T14:35:46.150Z,55.70
2017-06-15T14:38:13.713Z,52.40
2017-06-15T14:40:41.256Z,52.80
2017-06-15T14:43:08.838Z,53.10
2017-06-15T14:45:36.370Z,56.80
2017-06-15T14:48:03.958Z,54.00
2017-06-15T14:50:31.491Z,54.70
2017-06-15T14:52:59.078Z,54.70
2017-06-15T14:55:26.633Z,57.90
2017-06-15T14:57:54.197Z,55.10
2017-06-15T15:00:21.731Z,55.90
2017-06-15T15:02:49.265Z,55.50
2017-06-15T15:05:17.602Z,56.40
2017-06-15T15:07:45.167Z,56.30
2017-06-15T15:10:12.701Z,57.30
2017-06-15T15:12:40.233Z,55.40
2017-06-15T15:15:08.559Z,55.70
2017-06-15T15:17:36.215Z,55.70
2017-06-15T15:20:03.875Z,56.30
2017-06-15T15:22:31.446Z,55.80
2017-06-15T15:24:59.110Z,55.90
2017-06-15T15:27:26.639Z,55.50
2017-06-15T15:29:54.229Z,55.40
2017-06-15T15:32:21.768Z,56.70
2017-06-15T15:34:49.308Z,56.40
2017-06-15T15:37:17.602Z,57.10
2017-06-15T15:39:45.181Z,57.00
2017-06-15T15:42:12.717Z,57.30
2017-06-15T15:44:40.282Z,57.00
2017-06-15T15:47:07.871Z,57.40
2017-06-15T15:49:35.422Z,57.90
2017-06-15T15:52:03.004Z,57.40
2017-06-15T15:54:30.534Z,57.10
2017-06-15T15:56:58.318Z,56.70
2017-06-15T15:59:25.888Z,57.10
2017-06-15T16:01:53.416Z,56.00
2017-06-15T16:04:21.003Z,57.10
2017-06-15T16:06:48.531Z,57.60
2017-06-15T16:09:16.060Z,57.50
2017-06-15T16:11:44.363Z,56.70
2017-06-15T16:14:11.901Z,56.20
2017-06-15T16:16:40.223Z,56.90
2017-06-15T16:19:07.806Z,56.70
2017-06-15T16:21:35.370Z,56.70
2017-06-15T16:24:02.921Z,56.80
2017-06-15T16:26:30.454Z,58.40
2017-06-15T16:28:58.249Z,57.30
2017-06-15T16:31:25.811Z,57.60
2017-06-15T16:33:53.372Z,58.10
2017-06-15T16:36:20.926Z,58.50
2017-06-15T16:38:48.494Z,58.90
2017-06-15T16:41:16.054Z,58.00
2017-06-15T16:43:43.613Z,58.50
2017-06-15T16:46:11.172Z,59.10
2017-06-15T16:48:38.739Z,59.50
2017-06-15T16:51:06.278Z,59.30
2017-06-15T16:53:33.838Z,59.30
2017-06-15T16:56:01.414Z,59.90
2017-06-15T16:58:28.960Z,59.60
2017-06-15T17:00:56.536Z,60.10
2017-06-15T17:03:24.075Z,59.80
2017-06-15T17:05:51.655Z,59.80
2017-06-15T17:08:22.968Z,59.70
2017-06-15T17:10:50.527Z,59.60
2017-06-15T17:13:18.122Z,59.70
2017-06-15T17:15:45.689Z,59.80
2017-06-15T17:18:13.246Z,60.70
2017-06-15T17:20:40.806Z,60.90
2017-06-15T17:23:08.374Z,61.30
2017-06-15T17:25:35.931Z,61.20
2017-06-15T17:28:03.494Z,62.00
2017-06-15T17:30:31.022Z,62.00
2017-06-15T17:32:58.615Z,62.40
2017-06-15T17:35:26.174Z,65.20
2017-06-15T17:37:53.826Z,68.00
2017-06-15T17:40:21.395Z,70.00
2017-06-15T17:42:49.049Z,75.00
2017-06-15T17:45:40.350Z,78.30
2017-06-15T17:48:16.022Z,80.10
2017-06-15T17:50:54.785Z,88.10
2017-06-15T17:53:22.412Z,92.50
2017-06-15T17:55:49.977Z,94.30
2017-06-15T17:58:17.516Z,94.60
2017-06-15T18:00:45.066Z,94.90
2017-06-15T18:03:12.662Z,94.20
2017-06-15T18:05:40.321Z,95.40
2017-06-15T18:08:07.894Z,95.20
2017-06-15T18:10:35.541Z,96.00
2017-06-15T18:13:03.110Z,95.70
2017-06-15T18:15:30.762Z,96.10
2017-06-15T18:17:58.331Z,96.20
2017-06-15T18:20:25.972Z,97.90
2017-06-15T18:22:53.527Z,98.60
2017-06-15T18:25:21.070Z,98.30
2017-06-15T18:27:49.379Z,99.10
2017-06-15T18:30:16.958Z,99.10
2017-06-15T18:32:44.621Z,99.90
2017-06-15T18:35:12.265Z,99.90
2017-06-15T18:37:39.839Z,99.90
2017-06-15T18:40:07.415Z,99.90
2017-06-15T18:42:35.066Z,99.90
2017-06-15T18:45:02.640Z,99.40
2017-06-15T18:47:30.206Z,99.90
2017-06-15T18:49:57.842Z,99.90
2017-06-15T18:52:25.419Z,99.90
2017-06-15T18:54:52.970Z,99.90
2017-06-15T18:57:20.506Z,99.90
2017-06-15T18:59:48.089Z,99.90
2017-06-15T19:02:15.631Z,99.90
2017-06-15T19:04:43.214Z,99.90
2017-06-15T19:07:10.766Z,99.90
2017-06-15T19:09:38.329Z,99.90
2017-06-15T19:12:05.909Z,99.90
2017-06-15T19:14:33.551Z,99.90
2017-06-15T19:17:01.110Z,99.90
2017-06-15T19:19:28.774Z,99.90
2017-06-15T19:21:56.354Z,99.90
2017-06-15T19:24:23.922Z,99.90
2017-06-15T19:26:51.595Z,99.90
2017-06-15T19:29:19.231Z,99.80
2017-06-15T19:31:46.785Z,99.90
2017-06-15T19:34:14.355Z,99.80
2017-06-15T19:36:42.027Z,99.90
2017-06-15T19:39:09.566Z,99.90
2017-06-15T19:41:37.166Z,99.90
2017-06-15T19:44:04.700Z,99.90
2017-06-15T19:46:32.260Z,99.90
2017-06-15T19:48:59.818Z,99.90
2017-06-15T19:51:27.377Z,99.90
2017-06-15T19:53:54.929Z,99.90
2017-06-15T19:56:22.529Z,99.90
2017-06-15T19:58:50.058Z,99.90
2017-06-15T20:01:17.597Z,99.90
2017-06-15T20:03:45.181Z,99.90
2017-06-15T20:06:12.748Z,99.90
2017-06-15T20:08:40.326Z,99.90
2017-06-15T20:11:07.978Z,99.90
2017-06-15T20:13:35.530Z,99.90
2017-06-15T20:16:03.086Z,99.90
2017-06-15T20:18:30.655Z,99.90
2017-06-15T20:20:58.211Z,99.90
2017-06-15T20:23:25.756Z,99.90
2017-06-15T20:25:53.297Z,99.90
2017-06-15T20:28:20.828Z,99.90
2017-06-15T20:30:49.176Z,99.90
2017-06-15T20:33:22.319Z,99.90
2017-06-15T20:35:50.672Z,99.90
2017-06-15T20:38:18.305Z,99.90
2017-06-15T20:40:45.866Z,99.90
2017-06-15T20:43:13.398Z,99.90
2017-06-15T20:45:40.986Z,99.90
2017-06-15T20:48:08.519Z,99.90
2017-06-15T20:50:36.106Z,99.90
2017-06-15T20:53:03.653Z,99.90
2017-06-15T20:55:31.195Z,99.90
2017-06-15T20:57:58.797Z,99.90
2017-06-15T21:00:26.358Z,99.90
2017-06-15T21:02:53.913Z,99.90
2017-06-15T21:05:21.483Z,99.90
2017-06-15T21:07:49.019Z,99.90
2017-06-15T21:10:16.557Z,99.90
2017-06-15T21:12:44.148Z,99.90
2017-06-15T21:15:11.692Z,99.90
2017-06-15T21:17:39.274Z,99.90
2017-06-15T21:20:06.805Z,99.90
2017-06-15T21:22:34.421Z,99.90
2017-06-15T21:25:01.954Z,99.90
2017-06-15T21:27:29.525Z,99.90
2017-06-15T21:29:57.094Z,99.90
2017-06-15T21:32:24.679Z,99.90
2017-06-15T21:34:52.991Z,99.90
2017-06-15T21:37:20.584Z,99.90
2017-06-15T21:39:48.154Z,99.90
2017-06-15T21:42:15.697Z,99.90
2017-06-15T21:44:43.249Z,99.90
2017-06-15T21:47:10.818Z,99.90
2017-06-15T21:49:38.368Z,99.90
2017-06-15T21:52:05.911Z,99.90
2017-06-15T21:54:33.514Z,99.90
2017-06-15T21:57:01.054Z,99.90
2017-06-15T21:59:28.596Z,99.90
2017-06-15T22:01:56.196Z,99.90
2017-06-15T22:04:23.746Z,99.90
2017-06-15T22:06:51.406Z,99.90
2017-06-15T22:09:18.965Z,99.90
2017-06-15T22:14:40.188Z,99.90
2017-06-15T22:17:07.763Z,99.90
2017-06-15T22:19:35.325Z,99.90
2017-06-15T22:22:02.882Z,99.90
2017-06-15T22:24:30.418Z,99.90
2017-06-15T22:26:58.205Z,99.90
2017-06-15T22:29:25.781Z,99.90
2017-06-15T22:31:53.322Z,99.90
2017-06-15T22:34:20.902Z,99.90
2017-06-15T22:36:48.462Z,99.90
2017-06-15T22:39:16.036Z,99.90
2017-06-15T22:41:43.707Z,99.90
2017-06-15T22:44:11.258Z,99.90
2017-06-15T22:46:38.902Z,99.90
2017-06-15T22:49:06.438Z,99.90
2017-06-15T22:51:34.021Z,99.90
2017-06-15T22:54:01.557Z,99.90
2017-06-15T22:56:29.149Z,99.90
2017-06-15T22:58:56.682Z,99.90
2017-06-15T23:01:24.246Z,99.90
2017-06-15T23:03:51.827Z,99.90
2017-06-15T23:06:19.485Z,99.90
2017-06-15T23:08:47.049Z,99.90
2017-06-15T23:11:14.585Z,99.90
2017-06-15T23:13:42.175Z,99.90
2017-06-15T23:16:09.737Z,99.90
2017-06-15T23:18:37.296Z,99.90
2017-06-15T23:21:04.835Z,99.90
2017-06-15T23:23:32.377Z,99.90
2017-06-15T23:26:00.679Z,99.90
2017-06-15T23:28:28.219Z,99.90
2017-06-15T23:30:55.765Z,99.90
2017-06-15T23:33:24.095Z,99.90
2017-06-15T23:35:51.631Z,99.90
2017-06-15T23:38:19.216Z,99.90
2017-06-15T23:40:46.777Z,99.90
2017-06-15T23:43:14.346Z,99.90
2017-06-15T23:45:41.898Z,99.90
2017-06-15T23:48:09.461Z,99.90
2017-06-15T23:50:37.022Z,99.90
2017-06-15T23:53:04.587Z,99.90
2017-06-15T23:55:32.150Z,99.90
2017-06-15T23:57:59.706Z,99.90
